If you wish to contribute or participate in the discussions about articles you are invited to join SKYbrary as a registered user

 Actions

Anami

From SKYbrary Wiki

RJKA
Airport
ICAO: RJKA
Summary
Name Anami
Region Asia and Pacific
Territory Japan JP.gif
Location Amami, Kagoshima
Serving
Coordinates 28° 25' 52.1712", 129° 42' 43.6116"
Runways
Designator Length Width Surface ROPS
3/21 1999 m6,558.399 ft 46 m150.919 ft ASP yes/yes
METAR
Observation RJKA 132200Z 02015KT 9999 FEW045 BKN050 14/05 Q1022
Station Amami Airport
Date/Time 13 December 2017 22:00:00
Wind direction 20°
Wind speed 15 kts
Lowest cloud amount few clouds
Temperature 14°C
Dew point 5°C
Humidity 54%
QNH 1022 hPa
Weather condition n/a

Amami Airport

ICAO: RJKA IATA: ASJ

Description

Amami Airport (IATA: ASJ) is an airport located 21.9 km11.825 nm
21,900 m
71,850.394 ft
east northeast Amami, a city on Amami Ōshima (Amami Island) in the Kagoshima Prefecture of Japan. It was previously named Amami Oshima Airport.

Climatology

Humid Sub-tropical climate (Köppen climate classification Cwa) - Hot humid summers and cooler winter. Significant precipitation in all seasons but drier in the winter.

Ocasional Typhoons coming from South China Sea.

Maps

Terrain

Loading map...

Airport Layout

Loading map...


Accidents & Serious Incidents at or in vicinity of RJKA

None on SKYbrary